Zortman, Montana
Current Conditions -  °F | °C
As of 6:53 PM on Saturday 25 Oct 2014 (Local Time) from KHVR Reporting Station
Clear Clear  
Wind Chill: 56°   Ceiling: Unl
Heat Index: 56°   Visibility: 10mi
Dew Point: 38°   Wind: 10mph
Humidity: 51%   Direction: 90°E
Pressure: 29.64"   Gusts: NA
Location:  47.92°N, 108.53°W
Report Text: KHVR 260053Z AUTO 09009KT 10SM CLR 13/03 A2964 RMK AO2 SLP042 T01330033 $
Loading
Personal Weather Stations






























Interactive Weather Map
Tropical Storm Tracking
New forecast layout! Learn more

10-Day Weather Forecast

Advertisements
Track Severe Weather on mobile